createdAt,value
2017-10-09T00:02:03.366Z,11.5
2017-10-09T00:07:03.080Z,11.4
2017-10-09T00:12:03.234Z,11.4
2017-10-09T00:17:02.932Z,11.4
2017-10-09T00:22:03.161Z,11.4
2017-10-09T00:27:02.971Z,11.5
2017-10-09T00:32:02.810Z,11.5
2017-10-09T00:37:03.266Z,11.5
2017-10-09T00:42:02.841Z,11.7
2017-10-09T00:47:03.612Z,11.8
2017-10-09T00:52:02.907Z,11.8
2017-10-09T00:57:03.531Z,11.7
2017-10-09T01:02:03.322Z,11.6
2017-10-09T01:07:03.247Z,11.6
2017-10-09T01:12:03.094Z,11.6
2017-10-09T01:17:02.870Z,11.5
2017-10-09T01:22:03.148Z,11.6
2017-10-09T01:27:02.917Z,11.5
2017-10-09T01:32:03.651Z,11.5
2017-10-09T01:37:03.216Z,11.5
2017-10-09T01:42:02.958Z,11.4
2017-10-09T01:47:02.771Z,11.3
2017-10-09T01:52:03.142Z,11.3
2017-10-09T01:57:02.985Z,11.2
2017-10-09T02:02:03.694Z,11.2
2017-10-09T02:07:03.378Z,11.2
2017-10-09T02:12:03.398Z,11.2
2017-10-09T02:17:03.369Z,11.2
2017-10-09T02:22:02.986Z,11.1
2017-10-09T02:27:03.612Z,11.1
2017-10-09T02:32:03.490Z,11.0
2017-10-09T02:37:02.856Z,10.9
2017-10-09T02:42:02.971Z,10.9
2017-10-09T02:47:03.095Z,10.9
2017-10-09T02:52:03.171Z,11.0
2017-10-09T02:57:03.208Z,11.0
2017-10-09T03:02:03.482Z,11.1
2017-10-09T03:07:03.560Z,11.0
2017-10-09T03:12:02.882Z,11.0
2017-10-09T03:17:03.250Z,11.0
2017-10-09T03:22:03.255Z,11.1
2017-10-09T03:27:03.311Z,11.1
2017-10-09T03:32:03.406Z,11.4
2017-10-09T03:37:03.521Z,11.4
2017-10-09T03:42:03.504Z,11.5
2017-10-09T03:47:03.607Z,11.5
2017-10-09T03:52:02.845Z,11.5
2017-10-09T03:57:02.923Z,11.3
2017-10-09T04:02:03.072Z,11.3
2017-10-09T04:07:03.249Z,11.4
2017-10-09T04:12:03.500Z,11.4
2017-10-09T04:17:03.598Z,11.5
2017-10-09T04:22:02.780Z,11.5
2017-10-09T04:27:02.976Z,11.5
2017-10-09T04:32:03.120Z,11.5
2017-10-09T04:37:03.082Z,11.7
2017-10-09T04:42:03.184Z,11.7
2017-10-09T04:47:03.293Z,11.7
2017-10-09T04:52:03.287Z,11.8
2017-10-09T04:57:03.295Z,11.8
2017-10-09T05:02:03.464Z,11.8
2017-10-09T05:07:02.759Z,11.8
2017-10-09T05:12:03.092Z,11.8
2017-10-09T05:17:10.893Z,11.7
2017-10-09T05:22:03.330Z,11.5
2017-10-09T05:27:03.530Z,11.5
2017-10-09T05:32:13.305Z,11.6
2017-10-09T05:37:03.514Z,11.6
2017-10-09T05:42:02.806Z,11.6
2017-10-09T05:47:13.342Z,11.6
2017-10-09T05:52:03.084Z,11.6
2017-10-09T05:57:03.067Z,11.8
2017-10-09T06:02:17.205Z,11.9
2017-10-09T06:07:02.864Z,11.9
2017-10-09T06:12:03.422Z,12.0
2017-10-09T06:17:17.488Z,12.0
2017-10-09T06:22:03.634Z,12.1
2017-10-09T06:27:02.769Z,12.2
2017-10-09T06:32:17.385Z,12.3
2017-10-09T06:37:03.510Z,12.4
2017-10-09T06:42:02.659Z,12.3
2017-10-09T06:47:17.357Z,12.4
2017-10-09T06:52:02.824Z,12.5
2017-10-09T06:57:03.113Z,12.6
2017-10-09T07:02:13.629Z,12.7
2017-10-09T07:07:03.135Z,12.7
2017-10-09T07:12:03.518Z,12.7
2017-10-09T07:17:13.441Z,12.7
2017-10-09T07:22:03.320Z,12.6
2017-10-09T07:27:03.505Z,12.7
2017-10-09T07:32:13.134Z,12.8
2017-10-09T07:37:03.006Z,12.9
2017-10-09T07:42:03.225Z,13.1
2017-10-09T07:47:13.799Z,13.1
2017-10-09T07:52:03.523Z,13.2
2017-10-09T07:57:02.702Z,13.3
2017-10-09T08:02:13.394Z,13.3
2017-10-09T08:07:03.487Z,13.4
2017-10-09T08:12:02.798Z,13.6
2017-10-09T08:17:23.240Z,14.0
2017-10-09T08:22:03.479Z,14.0
2017-10-09T08:27:02.662Z,14.1
2017-10-09T08:32:13.378Z,14.1
2017-10-09T08:37:03.597Z,14.6
2017-10-09T08:42:02.623Z,15.0
2017-10-09T08:47:12.037Z,14.9
2017-10-09T08:52:02.978Z,15.4
2017-10-09T08:57:03.212Z,15.4
2017-10-09T09:02:13.784Z,15.6
2017-10-09T09:07:03.150Z,15.9
2017-10-09T09:12:02.850Z,15.9
2017-10-09T09:17:13.094Z,15.9
2017-10-09T09:22:03.530Z,15.7
2017-10-09T09:27:02.823Z,15.6
2017-10-09T09:32:13.933Z,15.5
2017-10-09T09:37:02.725Z,15.5
2017-10-09T09:42:02.958Z,15.9
2017-10-09T09:47:13.724Z,15.9
2017-10-09T09:52:03.130Z,16.3
2017-10-09T09:57:03.375Z,16.5
2017-10-09T10:02:16.715Z,17.0
2017-10-09T10:07:03.025Z,17.0
2017-10-09T10:12:03.436Z,16.7
2017-10-09T10:17:18.228Z,16.6
2017-10-09T10:22:03.403Z,16.3
2017-10-09T10:27:03.622Z,16.3
2017-10-09T10:32:17.455Z,16.4
2017-10-09T10:37:03.280Z,16.4
2017-10-09T10:42:03.461Z,16.5
2017-10-09T10:47:10.361Z,16.7
2017-10-09T10:52:03.159Z,16.9
2017-10-09T10:57:02.889Z,17.2
2017-10-09T11:02:17.082Z,17.8
2017-10-09T11:07:02.933Z,17.8
2017-10-09T11:12:03.212Z,18.5
2017-10-09T11:17:22.772Z,18.6
2017-10-09T11:22:03.542Z,18.6
2017-10-09T11:27:02.687Z,18.8
2017-10-09T11:32:13.517Z,19.0
2017-10-09T11:37:02.833Z,19.8
2017-10-09T11:42:03.239Z,19.8
2017-10-09T11:47:13.872Z,20.0
2017-10-09T11:52:02.840Z,19.8
2017-10-09T11:57:03.085Z,19.8
2017-10-09T12:02:13.684Z,19.5
2017-10-09T12:07:02.896Z,19.4
2017-10-09T12:12:03.331Z,19.4
2017-10-09T12:17:14.035Z,19.4
2017-10-09T12:22:02.914Z,19.3
2017-10-09T12:27:03.166Z,19.3
2017-10-09T12:32:17.301Z,19.5
2017-10-09T12:37:03.070Z,19.8
2017-10-09T12:42:03.417Z,20.9
2017-10-09T12:47:17.408Z,20.9
2017-10-09T12:52:02.715Z,21.3
2017-10-09T12:57:02.964Z,21.3
2017-10-09T13:02:17.202Z,21.2
2017-10-09T13:07:03.015Z,21.2
2017-10-09T13:12:03.394Z,20.9
2017-10-09T13:17:14.033Z,21.1
2017-10-09T13:22:03.362Z,21.3
2017-10-09T13:27:03.565Z,21.3
2017-10-09T13:32:13.556Z,21.4
2017-10-09T13:37:03.032Z,21.0
2017-10-09T13:42:03.218Z,21.0
2017-10-09T13:47:17.893Z,20.9
2017-10-09T13:52:02.806Z,20.6
2017-10-09T13:57:03.032Z,20.2
2017-10-09T14:02:13.585Z,19.3
2017-10-09T14:07:03.266Z,19.0
2017-10-09T14:12:03.583Z,19.0
2017-10-09T14:17:23.065Z,18.9
2017-10-09T14:22:03.303Z,19.1
2017-10-09T14:27:03.506Z,19.2
2017-10-09T14:42:03.571Z,19.1
2017-10-09T14:47:22.909Z,19.7
2017-10-09T14:52:03.405Z,19.7
2017-10-09T14:57:02.617Z,21.3
2017-10-09T15:02:13.098Z,21.6
2017-10-09T15:07:03.414Z,23.5
2017-10-09T15:12:02.770Z,23.5
2017-10-09T15:17:13.154Z,22.0
2017-10-09T15:22:03.592Z,23.0
2017-10-09T15:27:02.742Z,23.0
2017-10-09T15:32:13.433Z,26.3
2017-10-09T15:37:03.284Z,24.7
2017-10-09T15:42:03.455Z,22.8
2017-10-09T15:47:13.975Z,19.9
2017-10-09T15:52:03.345Z,19.7
2017-10-09T15:57:03.459Z,20.6
2017-10-09T16:02:16.619Z,19.7
2017-10-09T16:07:03.165Z,19.7
2017-10-09T16:12:03.531Z,18.7
2017-10-09T16:17:13.595Z,17.8
2017-10-09T16:22:02.667Z,16.6
2017-10-09T16:27:02.886Z,16.5
2017-10-09T16:32:17.834Z,16.2
2017-10-09T16:37:03.338Z,15.2
2017-10-09T16:42:03.510Z,15.1
2017-10-09T16:47:13.417Z,14.4
2017-10-09T16:52:03.306Z,14.4
2017-10-09T16:57:03.180Z,14.2
2017-10-09T17:02:17.879Z,14.1
2017-10-09T17:07:02.742Z,14.0
2017-10-09T17:12:03.128Z,14.0
2017-10-09T17:17:13.632Z,14.0
2017-10-09T17:22:02.945Z,14.0
2017-10-09T17:27:03.188Z,13.8
2017-10-09T17:32:06.280Z,13.8
2017-10-09T17:37:03.487Z,13.6
2017-10-09T17:42:03.559Z,13.6
2017-10-09T17:47:03.694Z,13.6
2017-10-09T17:52:02.802Z,13.6
2017-10-09T17:57:02.961Z,13.5
2017-10-09T18:02:03.125Z,13.2
2017-10-09T18:07:03.306Z,13.2
2017-10-09T18:12:03.571Z,13.1
2017-10-09T18:17:03.669Z,13.1
2017-10-09T18:22:02.849Z,13.1
2017-10-09T18:27:03.024Z,13.0
2017-10-09T18:32:03.162Z,13.1
2017-10-09T18:37:03.254Z,13.1
2017-10-09T18:42:03.237Z,13.0
2017-10-09T18:47:03.328Z,12.9
2017-10-09T18:52:03.476Z,12.8
2017-10-09T18:57:02.701Z,12.7
2017-10-09T19:02:02.869Z,12.6
2017-10-09T19:07:03.016Z,12.5
2017-10-09T19:12:03.216Z,12.4
2017-10-09T19:17:03.401Z,12.4
2017-10-09T19:22:03.521Z,12.3
2017-10-09T19:27:03.659Z,12.0
2017-10-09T19:32:02.860Z,12.0
2017-10-09T19:37:03.053Z,11.9
2017-10-09T19:42:03.133Z,11.7
2017-10-09T19:47:03.217Z,11.4
2017-10-09T19:52:03.273Z,11.3
2017-10-09T19:57:03.402Z,11.2
2017-10-09T20:02:03.493Z,11.1
2017-10-09T20:07:02.863Z,11.0
2017-10-09T20:12:03.220Z,11.0
2017-10-09T20:17:03.387Z,10.9
2017-10-09T20:22:03.439Z,10.9
2017-10-09T20:27:03.510Z,10.9
2017-10-09T20:32:03.616Z,10.7
2017-10-09T20:37:02.753Z,10.6
2017-10-09T20:42:02.849Z,10.5
2017-10-09T20:47:03.007Z,10.3
2017-10-09T20:52:03.164Z,10.2
2017-10-09T20:57:03.170Z,10.2
2017-10-09T21:02:03.256Z,10.2
2017-10-09T21:07:03.406Z,10.1
2017-10-09T21:12:03.626Z,10.0
2017-10-09T21:17:02.994Z,10.0
2017-10-09T21:22:03.133Z,10.0
2017-10-09T21:27:03.224Z,10.0
2017-10-09T21:32:03.278Z,10.0
2017-10-09T21:37:03.261Z,9.9
2017-10-09T21:42:03.406Z,10.0
2017-10-09T21:47:03.509Z,9.9
2017-10-09T21:52:03.530Z,9.8
2017-10-09T21:57:02.729Z,9.7
2017-10-09T22:02:02.895Z,9.9
2017-10-09T22:07:03.523Z,9.9
2017-10-09T22:12:03.327Z,10.0
2017-10-09T22:22:03.209Z,10.2
2017-10-09T22:27:03.516Z,10.1
2017-10-09T22:32:03.302Z,10.2
2017-10-09T22:37:02.939Z,10.1
2017-10-09T22:42:02.690Z,9.9
2017-10-09T22:47:03.321Z,9.8
2017-10-09T22:52:02.894Z,9.7
2017-10-09T22:57:03.396Z,9.6
2017-10-09T23:02:03.285Z,9.5
2017-10-09T23:07:03.076Z,9.5
2017-10-09T23:12:02.838Z,9.5
2017-10-09T23:17:03.709Z,9.6
2017-10-09T23:22:03.287Z,9.6
2017-10-09T23:27:03.011Z,9.7
2017-10-09T23:32:03.686Z,9.8
2017-10-09T23:37:03.622Z,9.8
2017-10-09T23:42:03.185Z,9.8
2017-10-09T23:47:02.918Z,9.8
2017-10-09T23:52:02.659Z,9.8
2017-10-09T23:57:03.263Z,9.8
